Akinada Bridge — H9PN — position and weather

sailwx.info

Track history (hours):
 
Tides and Currents Weather Stations Pressure Air Temp Water Temp Dewpoint Dewpoint Depression Visibility Wind Speed Wind Dir Waves Ship Positions

Akinada Bridge

Last reported at 2017-Nov-18 09:55 UTC. Time now 2017-Nov-21 06:30 UTC.
Position N 36°17' E 014°48'.

Length 284.7 m; beam 40 m.

Type: Cargo ship. MMSI: 352675000.

Date/timePositionNaut miles runAvg speedWind from/ knotsBaromVisibWave heightAir tempDewpointWater temp
2017-Nov-18 09:55N 36°17' E 014°48'1017.0
2017-Nov-18 09:19N 36°20' E 014°36'516.8
2017-Nov-18 09:00N 36°22' E 014°29'816.7
2017-Nov-18 08:30N 36°24' E 014°20'916.4
2017-Nov-18 07:59N 36°27' E 014°10'916.5
2017-Nov-18 07:27N 36°29' E 013°59'816.5
2017-Nov-18 06:56N 36°32' E 013°49'716.6
2017-Nov-18 06:30N 36°34' E 013°41'  
2017-Nov-15 22:29N 36°01' W 005°12'918.1
2017-Nov-15 22:00N 35°59' W 005°22'27516.6
2017-Nov-15 05:27N 36°58' W 010°55'1317.4
2017-Nov-15 04:41N 37°02' W 011°11'717.4
2017-Nov-15 04:16N 37°04' W 011°20'717.2
2017-Nov-15 03:53N 37°06' W 011°28'84416.9
2017-Nov-13 02:00N 39°48' W 029°05'816.6
2017-Nov-13 01:30N 39°49' W 029°16'816.5
2017-Nov-13 01:00N 39°49' W 029°26'816.5
2017-Nov-13 00:30N 39°50' W 029°37'1716.5
2017-Nov-12 23:30N 39°51' W 029°59'816.4
2017-Nov-12 23:00N 39°52' W 030°09'4316.7
2017-Nov-12 20:26N 39°54' W 031°05'1116.9
2017-Nov-12 19:47N 39°55' W 031°20'916.9
2017-Nov-12 19:14N 39°55' W 031°32'816.5
2017-Nov-12 18:44N 39°56' W 031°42'416.7
2017-Nov-12 18:30N 39°56' W 031°48'  
Track history (hours):
 
Tides and Currents Weather Stations Pressure Air Temp Water Temp Dewpoint Dewpoint Depression Visibility Wind Speed Wind Dir Waves Ship Positions

Akinada Bridge

Last reported at 2017-Nov-18 09:55 UTC. Time now 2017-Nov-21 06:30 UTC.
Position N 36°17' E 014°48'.

Length 284.7 m; beam 40 m.

Type: Cargo ship. MMSI: 352675000.

Date/timePositionNaut miles runAvg speedWind from/ knotsBaromVisibWave heightAir tempDewpointWater temp
2017-Nov-18 09:55N 36°17' E 014°48'1017.0
2017-Nov-18 09:19N 36°20' E 014°36'516.8
2017-Nov-18 09:00N 36°22' E 014°29'816.7
2017-Nov-18 08:30N 36°24' E 014°20'916.4
2017-Nov-18 07:59N 36°27' E 014°10'916.5
2017-Nov-18 07:27N 36°29' E 013°59'816.5
2017-Nov-18 06:56N 36°32' E 013°49'716.6
2017-Nov-18 06:30N 36°34' E 013°41'  
2017-Nov-15 22:29N 36°01' W 005°12'918.1
2017-Nov-15 22:00N 35°59' W 005°22'27516.6
2017-Nov-15 05:27N 36°58' W 010°55'1317.4
2017-Nov-15 04:41N 37°02' W 011°11'717.4
2017-Nov-15 04:16N 37°04' W 011°20'717.2
2017-Nov-15 03:53N 37°06' W 011°28'84416.9
2017-Nov-13 02:00N 39°48' W 029°05'816.6
2017-Nov-13 01:30N 39°49' W 029°16'816.5
2017-Nov-13 01:00N 39°49' W 029°26'816.5
2017-Nov-13 00:30N 39°50' W 029°37'1716.5
2017-Nov-12 23:30N 39°51' W 029°59'816.4
2017-Nov-12 23:00N 39°52' W 030°09'4316.7
2017-Nov-12 20:26N 39°54' W 031°05'1116.9
2017-Nov-12 19:47N 39°55' W 031°20'916.9
2017-Nov-12 19:14N 39°55' W 031°32'816.5
2017-Nov-12 18:44N 39°56' W 031°42'416.7
2017-Nov-12 18:30N 39°56' W 031°48'  

Dump ship's entire track history